sensor_id;sensor_type;location;lat;lon;timestamp;pressure;altitude;pressure_sealevel;temperature;humidity
64368;BME280;50692;53.314;-6.300;2023-04-25T00:01:42;101502.06;;;7.81;72.39
64368;BME280;50692;53.314;-6.300;2023-04-25T00:04:28;101502.78;;;7.86;72.56
64368;BME280;50692;53.314;-6.300;2023-04-25T00:07:15;101512.38;;;7.88;72.66
64368;BME280;50692;53.314;-6.300;2023-04-25T00:10:01;101513.25;;;7.87;73.57
64368;BME280;50692;53.314;-6.300;2023-04-25T00:12:46;101510.75;;;7.83;73.77
64368;BME280;50692;53.314;-6.300;2023-04-25T00:15:33;101519.47;;;7.85;73.91
64368;BME280;50692;53.314;-6.300;2023-04-25T00:18:20;101504.69;;;7.81;74.33
64368;BME280;50692;53.314;-6.300;2023-04-25T00:21:05;101506.41;;;7.82;74.39
64368;BME280;50692;53.314;-6.300;2023-04-25T00:23:55;101499.13;;;7.90;74.32
64368;BME280;50692;53.314;-6.300;2023-04-25T00:26:41;101509.66;;;7.90;75.17
64368;BME280;50692;53.314;-6.300;2023-04-25T00:29:27;101507.19;;;7.85;74.80
64368;BME280;50692;53.314;-6.300;2023-04-25T00:32:13;101509.81;;;7.85;74.95
64368;BME280;50692;53.314;-6.300;2023-04-25T00:34:58;101508.03;;;7.86;75.23
64368;BME280;50692;53.314;-6.300;2023-04-25T00:37:45;101502.84;;;7.83;75.58
64368;BME280;50692;53.314;-6.300;2023-04-25T00:40:31;101497.69;;;7.80;75.72
64368;BME280;50692;53.314;-6.300;2023-04-25T00:43:17;101475.47;;;7.59;75.79
64368;BME280;50692;53.314;-6.300;2023-04-25T00:46:03;101497.69;;;7.80;75.63
64368;BME280;50692;53.314;-6.300;2023-04-25T00:48:49;101508.22;;;7.80;75.47
64368;BME280;50692;53.314;-6.300;2023-04-25T00:51:35;101506.66;;;7.73;75.72
64368;BME280;50692;53.314;-6.300;2023-04-25T00:54:21;101505.31;;;7.59;76.21
64368;BME280;50692;53.314;-6.300;2023-04-25T00:57:07;101502.66;;;7.59;76.25
64368;BME280;50692;53.314;-6.300;2023-04-25T00:59:52;101497.69;;;7.49;76.32
64368;BME280;50692;53.314;-6.300;2023-04-25T01:02:39;101511.44;;;7.58;76.49
64368;BME280;50692;53.314;-6.300;2023-04-25T01:05:25;101506.25;;;7.55;76.63
64368;BME280;50692;53.314;-6.300;2023-04-25T01:08:13;101508.09;;;7.53;76.85
64368;BME280;50692;53.314;-6.300;2023-04-25T01:10:59;101517.00;;;7.48;77.36
64368;BME280;50692;53.314;-6.300;2023-04-25T01:13:45;101503.94;;;7.44;77.24
64368;BME280;50692;53.314;-6.300;2023-04-25T01:16:31;101506.69;;;7.40;77.52
64368;BME280;50692;53.314;-6.300;2023-04-25T01:19:17;101503.34;;;7.35;77.88
64368;BME280;50692;53.314;-6.300;2023-04-25T01:22:04;101500.94;;;7.26;78.15
64368;BME280;50692;53.314;-6.300;2023-04-25T01:24:50;101501.72;;;7.29;78.05
64368;BME280;50692;53.314;-6.300;2023-04-25T01:27:36;101508.66;;;7.32;77.87
64368;BME280;50692;53.314;-6.300;2023-04-25T01:30:22;101497.31;;;7.30;77.71
64368;BME280;50692;53.314;-6.300;2023-04-25T01:33:09;101492.13;;;7.27;77.57
64368;BME280;50692;53.314;-6.300;2023-04-25T01:35:54;101487.72;;;7.29;77.38
64368;BME280;50692;53.314;-6.300;2023-04-25T01:38:41;101487.66;;;7.30;77.24
64368;BME280;50692;53.314;-6.300;2023-04-25T01:41:27;101486.78;;;7.31;77.37
64368;BME280;50692;53.314;-6.300;2023-04-25T01:44:13;101498.38;;;7.22;77.71
64368;BME280;50692;53.314;-6.300;2023-04-25T01:46:59;101493.31;;;7.16;77.93
64368;BME280;50692;53.314;-6.300;2023-04-25T01:49:45;101487.38;;;7.08;78.32
64368;BME280;50692;53.314;-6.300;2023-04-25T01:52:31;101485.78;;;7.03;78.47
64368;BME280;50692;53.314;-6.300;2023-04-25T01:55:17;101477.03;;;7.02;78.41
64368;BME280;50692;53.314;-6.300;2023-04-25T01:58:03;101481.50;;;6.99;78.63
64368;BME280;50692;53.314;-6.300;2023-04-25T02:00:54;101484.22;;;6.94;78.98
64368;BME280;50692;53.314;-6.300;2023-04-25T02:03:41;101488.84;;;6.86;79.54
64368;BME280;50692;53.314;-6.300;2023-04-25T02:06:26;101495.00;;;6.83;79.37
64368;BME280;50692;53.314;-6.300;2023-04-25T02:09:12;101482.16;;;6.72;79.49
64368;BME280;50692;53.314;-6.300;2023-04-25T02:11:58;101498.59;;;6.81;79.62
64368;BME280;50692;53.314;-6.300;2023-04-25T02:14:44;101503.00;;;7.14;78.33
64368;BME280;50692;53.314;-6.300;2023-04-25T02:17:29;101507.88;;;6.94;78.92
64368;BME280;50692;53.314;-6.300;2023-04-25T02:20:17;101497.78;;;6.79;80.12
64368;BME280;50692;53.314;-6.300;2023-04-25T02:23:03;101497.88;;;6.74;80.46
64368;BME280;50692;53.314;-6.300;2023-04-25T02:25:49;101497.03;;;6.73;80.87
64368;BME280;50692;53.314;-6.300;2023-04-25T02:28:35;101500.34;;;6.80;80.40
64368;BME280;50692;53.314;-6.300;2023-04-25T02:31:21;101490.47;;;6.90;79.16
64368;BME280;50692;53.314;-6.300;2023-04-25T02:34:07;101499.41;;;6.84;79.76
64368;BME280;50692;53.314;-6.300;2023-04-25T02:36:52;101498.81;;;6.71;80.14
64368;BME280;50692;53.314;-6.300;2023-04-25T02:39:38;101502.44;;;6.66;80.50
64368;BME280;50692;53.314;-6.300;2023-04-25T02:42:24;101498.16;;;6.62;80.59
64368;BME280;50692;53.314;-6.300;2023-04-25T02:45:10;101502.69;;;6.57;80.60
64368;BME280;50692;53.314;-6.300;2023-04-25T02:47:56;101493.34;;;6.43;81.33
64368;BME280;50692;53.314;-6.300;2023-04-25T02:50:42;101491.75;;;6.38;81.14
64368;BME280;50692;53.314;-6.300;2023-04-25T02:53:28;101495.13;;;6.43;81.31
64368;BME280;50692;53.314;-6.300;2023-04-25T02:56:13;101498.78;;;6.36;81.54
64368;BME280;50692;53.314;-6.300;2023-04-25T02:58:59;101495.13;;;6.79;78.89
64368;BME280;50692;53.314;-6.300;2023-04-25T03:01:45;101491.47;;;6.86;78.12
64368;BME280;50692;53.314;-6.300;2023-04-25T03:04:31;101495.81;;;6.87;77.82
64368;BME280;50692;53.314;-6.300;2023-04-25T03:07:18;101494.13;;;6.84;78.17
64368;BME280;50692;53.314;-6.300;2023-04-25T03:10:05;101489.84;;;6.80;77.90
64368;BME280;50692;53.314;-6.300;2023-04-25T03:12:51;101479.56;;;6.71;77.71
64368;BME280;50692;53.314;-6.300;2023-04-25T03:15:39;101483.91;;;6.72;78.34
64368;BME280;50692;53.314;-6.300;2023-04-25T03:18:25;101486.78;;;6.63;78.42
64368;BME280;50692;53.314;-6.300;2023-04-25T03:21:11;101480.81;;;6.56;78.59
64368;BME280;50692;53.314;-6.300;2023-04-25T03:23:57;101481.84;;;6.49;79.11
64368;BME280;50692;53.314;-6.300;2023-04-25T03:26:42;101494.00;;;6.53;78.89
64368;BME280;50692;53.314;-6.300;2023-04-25T03:29:28;101494.94;;;6.51;78.85
64368;BME280;50692;53.314;-6.300;2023-04-25T03:32:14;101495.13;;;6.43;79.06
64368;BME280;50692;53.314;-6.300;2023-04-25T03:35:00;101495.41;;;6.31;79.12
64368;BME280;50692;53.314;-6.300;2023-04-25T03:37:45;101505.94;;;6.29;79.54
64368;BME280;50692;53.314;-6.300;2023-04-25T03:40:31;101503.44;;;6.23;79.81
64368;BME280;50692;53.314;-6.300;2023-04-25T03:43:17;101506.16;;;6.20;80.01
64368;BME280;50692;53.314;-6.300;2023-04-25T03:46:03;101500.94;;;6.18;79.71
64368;BME280;50692;53.314;-6.300;2023-04-25T03:48:49;101505.31;;;6.18;79.51
64368;BME280;50692;53.314;-6.300;2023-04-25T03:51:35;101501.00;;;5.72;81.53
64368;BME280;50692;53.314;-6.300;2023-04-25T03:54:20;101498.47;;;6.11;79.39
64368;BME280;50692;53.314;-6.300;2023-04-25T03:57:06;101509.09;;;6.05;79.37
64368;BME280;50692;53.314;-6.300;2023-04-25T03:59:52;101508.34;;;5.99;79.78
64368;BME280;50692;53.314;-6.300;2023-04-25T04:02:38;101506.69;;;5.95;79.90
64368;BME280;50692;53.314;-6.300;2023-04-25T04:05:24;101499.69;;;5.94;79.81
64368;BME280;50692;53.314;-6.300;2023-04-25T04:08:10;101504.94;;;5.96;79.42
64368;BME280;50692;53.314;-6.300;2023-04-25T04:10:57;101497.19;;;5.88;79.81
64368;BME280;50692;53.314;-6.300;2023-04-25T04:13:43;101505.06;;;5.87;79.84
64368;BME280;50692;53.314;-6.300;2023-04-25T04:16:29;101500.59;;;5.92;79.25
64368;BME280;50692;53.314;-6.300;2023-04-25T04:19:15;101498.09;;;5.86;79.07
64368;BME280;50692;53.314;-6.300;2023-04-25T04:22:01;101505.06;;;5.87;78.86
64368;BME280;50692;53.314;-6.300;2023-04-25T04:24:46;101496.47;;;5.80;78.97
64368;BME280;50692;53.314;-6.300;2023-04-25T04:27:33;101494.75;;;5.79;79.03
64368;BME280;50692;53.314;-6.300;2023-04-25T04:30:23;101498.28;;;5.76;79.10
64368;BME280;50692;53.314;-6.300;2023-04-25T04:33:09;101507.91;;;5.77;80.82
64368;BME280;50692;53.314;-6.300;2023-04-25T04:35:55;101501.06;;;5.69;79.58
64368;BME280;50692;53.314;-6.300;2023-04-25T04:38:41;101499.47;;;5.62;79.33
64368;BME280;50692;53.314;-6.300;2023-04-25T04:41:27;101509.91;;;5.65;79.45
64368;BME280;50692;53.314;-6.300;2023-04-25T04:44:13;101510.78;;;5.64;79.18
64368;BME280;50692;53.314;-6.300;2023-04-25T04:47:00;101510.75;;;5.20;80.60
64368;BME280;50692;53.314;-6.300;2023-04-25T04:49:46;101502.59;;;4.88;82.92
64368;BME280;50692;53.314;-6.300;2023-04-25T04:52:31;101512.13;;;4.90;83.27
64368;BME280;50692;53.314;-6.300;2023-04-25T04:55:17;101509.59;;;4.86;83.25
64368;BME280;50692;53.314;-6.300;2023-04-25T04:58:03;101510.56;;;4.80;83.57
64368;BME280;50692;53.314;-6.300;2023-04-25T05:00:49;101508.00;;;4.75;84.13
64368;BME280;50692;53.314;-6.300;2023-04-25T05:03:35;101511.53;;;4.74;84.08
64368;BME280;50692;53.314;-6.300;2023-04-25T05:06:21;101515.91;;;4.72;84.00
64368;BME280;50692;53.314;-6.300;2023-04-25T05:09:06;101516.84;;;4.68;84.54
64368;BME280;50692;53.314;-6.300;2023-04-25T05:11:52;101516.84;;;4.70;84.81
64368;BME280;50692;53.314;-6.300;2023-04-25T05:14:38;101516.84;;;4.70;84.56
64368;BME280;50692;53.314;-6.300;2023-04-25T05:17:24;101523.84;;;4.68;84.18
64368;BME280;50692;53.314;-6.300;2023-04-25T05:20:11;101524.66;;;4.73;83.92
64368;BME280;50692;53.314;-6.300;2023-04-25T05:22:57;101527.28;;;4.71;84.23
64368;BME280;50692;53.314;-6.300;2023-04-25T05:25:43;101535.13;;;4.73;83.75
64368;BME280;50692;53.314;-6.300;2023-04-25T05:28:29;101535.19;;;4.70;83.84
64368;BME280;50692;53.314;-6.300;2023-04-25T05:31:15;101530.81;;;4.70;83.83
64368;BME280;50692;53.314;-6.300;2023-04-25T05:34:00;101531.56;;;4.77;83.75
64368;BME280;50692;53.314;-6.300;2023-04-25T05:36:46;101540.28;;;4.77;83.84
64368;BME280;50692;53.314;-6.300;2023-04-25T05:39:33;101535.06;;;4.77;83.60
64368;BME280;50692;53.314;-6.300;2023-04-25T05:42:19;101535.06;;;4.76;83.95
64368;BME280;50692;53.314;-6.300;2023-04-25T05:45:06;101532.47;;;4.74;83.94
64368;BME280;50692;53.314;-6.300;2023-04-25T05:47:51;101539.44;;;4.75;84.51
64368;BME280;50692;53.314;-6.300;2023-04-25T05:50:37;101539.44;;;4.77;84.44
64368;BME280;50692;53.314;-6.300;2023-04-25T05:53:23;101540.25;;;4.80;84.49
64368;BME280;50692;53.314;-6.300;2023-04-25T05:56:09;101539.31;;;4.85;84.47
64368;BME280;50692;53.314;-6.300;2023-04-25T05:58:55;101544.34;;;4.97;84.43
64368;BME280;50692;53.314;-6.300;2023-04-25T06:01:41;101551.19;;;5.04;84.18
64368;BME280;50692;53.314;-6.300;2023-04-25T06:04:27;101544.09;;;5.11;83.88
64368;BME280;50692;53.314;-6.300;2023-04-25T06:07:13;101549.25;;;5.15;83.63
64368;BME280;50692;53.314;-6.300;2023-04-25T06:09:59;101551.88;;;5.17;83.90
64368;BME280;50692;53.314;-6.300;2023-04-25T06:12:46;101560.47;;;5.25;83.79
64368;BME280;50692;53.314;-6.300;2023-04-25T06:15:32;101563.94;;;5.25;83.61
64368;BME280;50692;53.314;-6.300;2023-04-25T06:18:18;101558.75;;;5.24;83.64
64368;BME280;50692;53.314;-6.300;2023-04-25T06:21:04;101556.97;;;5.24;83.54
64368;BME280;50692;53.314;-6.300;2023-04-25T06:23:51;101558.75;;;5.22;83.47
64368;BME280;50692;53.314;-6.300;2023-04-25T06:26:36;101557.03;;;5.23;83.51
64368;BME280;50692;53.314;-6.300;2023-04-25T06:29:22;101551.66;;;5.29;83.72
64368;BME280;50692;53.314;-6.300;2023-04-25T06:32:08;101564.63;;;5.37;83.65
64368;BME280;50692;53.314;-6.300;2023-04-25T06:34:54;101562.78;;;5.42;83.70
64368;BME280;50692;53.314;-6.300;2023-04-25T06:37:39;101565.19;;;5.54;83.81
64368;BME280;50692;53.314;-6.300;2023-04-25T06:40:26;101572.88;;;5.63;83.34
64368;BME280;50692;53.314;-6.300;2023-04-25T06:43:11;101561.41;;;5.69;83.00
64368;BME280;50692;53.314;-6.300;2023-04-25T06:45:57;101551.72;;;5.72;82.89
64368;BME280;50692;53.314;-6.300;2023-04-25T06:48:43;101570.81;;;5.81;82.74
64368;BME280;50692;53.314;-6.300;2023-04-25T06:51:29;101561.13;;;5.84;83.00
64368;BME280;50692;53.314;-6.300;2023-04-25T06:54:16;101562.78;;;5.88;83.00
64368;BME280;50692;53.314;-6.300;2023-04-25T06:57:03;101556.50;;;5.97;83.04
64368;BME280;50692;53.314;-6.300;2023-04-25T06:59:48;101560.69;;;6.07;83.15
64368;BME280;50692;53.314;-6.300;2023-04-25T07:02:35;101555.25;;;6.15;82.86
64368;BME280;50692;53.314;-6.300;2023-04-25T07:05:21;101561.25;;;6.21;82.88
64368;BME280;50692;53.314;-6.300;2023-04-25T07:08:06;101549.84;;;6.22;82.95
64368;BME280;50692;53.314;-6.300;2023-04-25T07:10:52;101547.13;;;6.27;82.80
64368;BME280;50692;53.314;-6.300;2023-04-25T07:13:38;101539.03;;;6.36;82.71
64368;BME280;50692;53.314;-6.300;2023-04-25T07:16:24;101540.63;;;6.43;82.78
64368;BME280;50692;53.314;-6.300;2023-04-25T07:19:10;101543.06;;;6.51;82.66
64368;BME280;50692;53.314;-6.300;2023-04-25T07:21:55;101548.13;;;6.60;82.39
64368;BME280;50692;53.314;-6.300;2023-04-25T07:24:41;101555.09;;;6.63;82.14
64368;BME280;50692;53.314;-6.300;2023-04-25T07:27:27;101554.91;;;6.69;82.30
64368;BME280;50692;53.314;-6.300;2023-04-25T07:30:13;101547.84;;;6.72;81.83
64368;BME280;50692;53.314;-6.300;2023-04-25T07:32:59;101543.22;;;6.82;81.63
64368;BME280;50692;53.314;-6.300;2023-04-25T07:35:46;101556.25;;;6.87;81.59
64368;BME280;50692;53.314;-6.300;2023-04-25T07:38:32;101549.88;;;6.97;81.25
64368;BME280;50692;53.314;-6.300;2023-04-25T07:41:19;101544.41;;;7.05;81.18
64368;BME280;50692;53.314;-6.300;2023-04-25T07:44:04;101553.94;;;7.10;81.17
64368;BME280;50692;53.314;-6.300;2023-04-25T07:46:50;101554.66;;;7.17;80.75
64368;BME280;50692;53.314;-6.300;2023-04-25T07:49:36;101559.03;;;7.16;80.90
64368;BME280;50692;53.314;-6.300;2023-04-25T07:52:22;101555.31;;;7.25;80.72
64368;BME280;50692;53.314;-6.300;2023-04-25T07:55:08;101553.31;;;7.35;80.74
64368;BME280;50692;53.314;-6.300;2023-04-25T07:57:54;101548.75;;;7.41;80.64
64368;BME280;50692;53.314;-6.300;2023-04-25T08:00:40;101556.16;;;7.58;80.48
64368;BME280;50692;53.314;-6.300;2023-04-25T08:03:27;101557.66;;;7.68;80.49
64368;BME280;50692;53.314;-6.300;2023-04-25T08:06:12;101555.59;;;7.80;79.76
64368;BME280;50692;53.314;-6.300;2023-04-25T08:09:00;101558.06;;;7.86;79.12
64368;BME280;50692;53.314;-6.300;2023-04-25T08:11:46;101559.59;;;7.93;78.79
64368;BME280;50692;53.314;-6.300;2023-04-25T08:14:32;101555.72;;;8.06;78.57
64368;BME280;50692;53.314;-6.300;2023-04-25T08:17:21;101554.16;;;8.29;77.79
64368;BME280;50692;53.314;-6.300;2023-04-25T08:20:07;101558.81;;;8.50;76.81
64368;BME280;50692;53.314;-6.300;2023-04-25T08:22:53;101538.94;;;8.68;76.21
64368;BME280;50692;53.314;-6.300;2023-04-25T08:25:38;101544.09;;;8.99;75.01
64368;BME280;50692;53.314;-6.300;2023-04-25T08:28:24;101555.34;;;9.29;74.42
64368;BME280;50692;53.314;-6.300;2023-04-25T08:31:10;101550.09;;;9.54;73.75
64368;BME280;50692;53.314;-6.300;2023-04-25T08:33:56;101565.06;;;9.79;73.29
64368;BME280;50692;53.314;-6.300;2023-04-25T08:36:42;101565.41;;;9.93;71.73
64368;BME280;50692;53.314;-6.300;2023-04-25T08:39:28;101563.25;;;10.04;70.50
64368;BME280;50692;53.314;-6.300;2023-04-25T08:42:15;101565.03;;;10.27;69.75
64368;BME280;50692;53.314;-6.300;2023-04-25T08:45:01;101570.44;;;10.48;69.03
64368;BME280;50692;53.314;-6.300;2023-04-25T08:47:51;101562.88;;;10.61;66.49
64368;BME280;50692;53.314;-6.300;2023-04-25T08:50:50;101556.13;;;10.75;65.13
64368;BME280;50692;53.314;-6.300;2023-04-25T08:53:37;101557.09;;;10.95;65.05
64368;BME280;50692;53.314;-6.300;2023-04-25T08:56:28;101549.50;;;11.08;64.01
64368;BME280;50692;53.314;-6.300;2023-04-25T08:59:14;101557.00;;;11.39;63.69
64368;BME280;50692;53.314;-6.300;2023-04-25T09:02:00;101549.31;;;11.53;62.59
64368;BME280;50692;53.314;-6.300;2023-04-25T09:04:46;101551.91;;;11.55;61.33
64368;BME280;50692;53.314;-6.300;2023-04-25T09:07:33;101543.75;;;11.59;60.04
64368;BME280;50692;53.314;-6.300;2023-04-25T09:10:19;101544.88;;;11.74;59.37
64368;BME280;50692;53.314;-6.300;2023-04-25T09:13:09;101542.34;;;11.91;58.54
64368;BME280;50692;53.314;-6.300;2023-04-25T09:15:56;101547.63;;;12.12;58.37
64368;BME280;50692;53.314;-6.300;2023-04-25T09:18:42;101543.69;;;12.39;58.29
64368;BME280;50692;53.314;-6.300;2023-04-25T09:21:28;101548.44;;;12.69;57.85
64368;BME280;50692;53.314;-6.300;2023-04-25T09:24:29;101541.84;;;12.95;56.29
64368;BME280;50692;53.314;-6.300;2023-04-25T09:27:21;101534.91;;;13.10;53.68
64368;BME280;50692;53.314;-6.300;2023-04-25T09:30:11;101552.63;;;13.09;53.44
64368;BME280;50692;53.314;-6.300;2023-04-25T09:33:07;101551.34;;;13.35;54.76
64368;BME280;50692;53.314;-6.300;2023-04-25T09:35:53;101555.84;;;13.68;53.59
64368;BME280;50692;53.314;-6.300;2023-04-25T09:38:45;101540.22;;;13.79;51.19
64368;BME280;50692;53.314;-6.300;2023-04-25T09:41:31;101544.97;;;13.73;51.88
64368;BME280;50692;53.314;-6.300;2023-04-25T09:44:23;101548.53;;;13.89;52.78
64368;BME280;50692;53.314;-6.300;2023-04-25T09:47:11;101541.56;;;14.20;52.61
64368;BME280;50692;53.314;-6.300;2023-04-25T09:49:58;101550.59;;;14.33;50.73
64368;BME280;50692;53.314;-6.300;2023-04-25T09:52:44;101550.84;;;14.44;51.05
64368;BME280;50692;53.314;-6.300;2023-04-25T09:55:31;101545.72;;;14.73;50.69
64368;BME280;50692;53.314;-6.300;2023-04-25T09:58:18;101548.56;;;15.00;48.39
64368;BME280;50692;53.314;-6.300;2023-04-25T10:01:08;101556.38;;;15.03;48.38
64368;BME280;50692;53.314;-6.300;2023-04-25T10:03:57;101554.34;;;14.92;48.99
64368;BME280;50692;53.314;-6.300;2023-04-25T10:06:45;101554.69;;;14.86;49.22
64368;BME280;50692;53.314;-6.300;2023-04-25T10:09:32;101559.19;;;14.70;49.31
64368;BME280;50692;53.314;-6.300;2023-04-25T10:12:21;101552.88;;;14.39;48.27
64368;BME280;50692;53.314;-6.300;2023-04-25T10:15:08;101568.50;;;14.29;49.32
64368;BME280;50692;53.314;-6.300;2023-04-25T10:17:54;101562.31;;;14.13;49.71
64368;BME280;50692;53.314;-6.300;2023-04-25T10:20:42;101561.00;;;14.04;49.74
64368;BME280;50692;53.314;-6.300;2023-04-25T10:23:32;101564.00;;;13.98;50.59
64368;BME280;50692;53.314;-6.300;2023-04-25T10:26:19;101558.25;;;13.90;50.18
64368;BME280;50692;53.314;-6.300;2023-04-25T10:29:05;101555.16;;;13.98;50.34
64368;BME280;50692;53.314;-6.300;2023-04-25T10:31:52;101557.66;;;14.01;50.32
64368;BME280;50692;53.314;-6.300;2023-04-25T10:34:43;101555.16;;;13.98;50.01
64368;BME280;50692;53.314;-6.300;2023-04-25T10:37:32;101546.56;;;13.92;49.73
64368;BME280;50692;53.314;-6.300;2023-04-25T10:40:22;101542.56;;;14.01;49.99
64368;BME280;50692;53.314;-6.300;2023-04-25T10:46:22;101543.22;;;14.70;49.45
64368;BME280;50692;53.314;-6.300;2023-04-25T10:49:08;101535.63;;;14.94;48.63
64368;BME280;50692;53.314;-6.300;2023-04-25T10:52:34;101540.34;;;15.49;47.22
64368;BME280;50692;53.314;-6.300;2023-04-25T10:55:20;101546.47;;;15.79;46.09
64368;BME280;50692;53.314;-6.300;2023-04-25T10:58:06;101544.19;;;16.30;46.29
64368;BME280;50692;53.314;-6.300;2023-04-25T11:00:52;101536.78;;;16.63;45.43
64368;BME280;50692;53.314;-6.300;2023-04-25T11:03:40;101542.31;;;16.60;44.73
64368;BME280;50692;53.314;-6.300;2023-04-25T11:09:24;101545.50;;;16.38;44.76
64368;BME280;50692;53.314;-6.300;2023-04-25T11:12:10;101535.69;;;16.38;43.23
64368;BME280;50692;53.314;-6.300;2023-04-25T11:15:05;101530.91;;;16.70;41.55
64368;BME280;50692;53.314;-6.300;2023-04-25T11:17:52;101524.03;;;17.20;41.90
64368;BME280;50692;53.314;-6.300;2023-04-25T11:20:38;101525.34;;;17.40;41.28
64368;BME280;50692;53.314;-6.300;2023-04-25T11:23:24;101522.69;;;17.66;40.93
64368;BME280;50692;53.314;-6.300;2023-04-25T11:26:10;101522.50;;;17.94;40.28
64368;BME280;50692;53.314;-6.300;2023-04-25T11:28:59;101530.13;;;18.25;39.61
64368;BME280;50692;53.314;-6.300;2023-04-25T11:31:48;101520.06;;;18.28;38.30
64368;BME280;50692;53.314;-6.300;2023-04-25T11:34:34;101520.25;;;18.38;37.26
64368;BME280;50692;53.314;-6.300;2023-04-25T11:37:20;101527.84;;;17.82;35.16
64368;BME280;50692;53.314;-6.300;2023-04-25T11:40:07;101515.75;;;17.76;36.42
64368;BME280;50692;53.314;-6.300;2023-04-25T11:42:55;101512.09;;;17.90;38.49
64368;BME280;50692;53.314;-6.300;2023-04-25T11:45:40;101515.63;;;18.03;37.28
64368;BME280;50692;53.314;-6.300;2023-04-25T11:48:27;101519.56;;;18.23;35.50
64368;BME280;50692;53.314;-6.300;2023-04-25T11:51:14;101503.88;;;17.42;35.38
64368;BME280;50692;53.314;-6.300;2023-04-25T11:54:00;101510.38;;;17.25;36.22
64368;BME280;50692;53.314;-6.300;2023-04-25T11:56:46;101514.09;;;17.22;36.04
64368;BME280;50692;53.314;-6.300;2023-04-25T11:59:32;101509.97;;;17.57;36.95
64368;BME280;50692;53.314;-6.300;2023-04-25T12:02:24;101508.56;;;18.02;35.47
64368;BME280;50692;53.314;-6.300;2023-04-25T12:05:12;101506.88;;;17.76;35.15
64368;BME280;50692;53.314;-6.300;2023-04-25T12:08:12;101511.56;;;17.72;35.68
64368;BME280;50692;53.314;-6.300;2023-04-25T12:10:58;101520.66;;;17.31;36.38
64368;BME280;50692;53.314;-6.300;2023-04-25T12:13:44;101506.88;;;16.97;36.93
64368;BME280;50692;53.314;-6.300;2023-04-25T12:16:40;101506.38;;;16.51;37.81
64368;BME280;50692;53.314;-6.300;2023-04-25T12:19:32;101501.72;;;16.13;38.59
64368;BME280;50692;53.314;-6.300;2023-04-25T12:22:24;101506.97;;;16.00;39.42
64368;BME280;50692;53.314;-6.300;2023-04-25T12:25:33;101515.38;;;15.94;40.09
64368;BME280;50692;53.314;-6.300;2023-04-25T12:28:21;101516.78;;;15.71;39.54
64368;BME280;50692;53.314;-6.300;2023-04-25T12:31:09;101512.22;;;15.73;40.51
64368;BME280;50692;53.314;-6.300;2023-04-25T12:33:55;101504.47;;;15.54;40.34
64368;BME280;50692;53.314;-6.300;2023-04-25T12:36:42;101512.75;;;15.50;40.21
64368;BME280;50692;53.314;-6.300;2023-04-25T12:39:27;101512.03;;;15.76;40.32
64368;BME280;50692;53.314;-6.300;2023-04-25T12:42:13;101496.41;;;15.85;40.77
64368;BME280;50692;53.314;-6.300;2023-04-25T12:44:59;101510.41;;;15.88;41.80
64368;BME280;50692;53.314;-6.300;2023-04-25T12:47:45;101494.06;;;15.66;42.14
64368;BME280;50692;53.314;-6.300;2023-04-25T12:50:31;101511.81;;;15.65;42.68
64368;BME280;50692;53.314;-6.300;2023-04-25T12:53:21;101506.69;;;15.62;42.75
64368;BME280;50692;53.314;-6.300;2023-04-25T12:56:08;101501.00;;;15.24;42.74
64368;BME280;50692;53.314;-6.300;2023-04-25T12:58:54;101506.91;;;15.43;42.89
64368;BME280;50692;53.314;-6.300;2023-04-25T13:01:40;101503.06;;;15.63;42.55
64368;BME280;50692;53.314;-6.300;2023-04-25T13:04:27;101491.47;;;15.78;41.72
64368;BME280;50692;53.314;-6.300;2023-04-25T13:07:13;101515.06;;;15.99;41.18
64368;BME280;50692;53.314;-6.300;2023-04-25T13:09:58;101505.41;;;15.53;41.36
64368;BME280;50692;53.314;-6.300;2023-04-25T13:12:45;101502.88;;;15.22;42.57
64368;BME280;50692;53.314;-6.300;2023-04-25T13:15:32;101502.63;;;14.96;43.29
64368;BME280;50692;53.314;-6.300;2023-04-25T13:18:18;101493.63;;;14.69;44.48
64368;BME280;50692;53.314;-6.300;2023-04-25T13:21:04;101499.69;;;14.71;45.02
64368;BME280;50692;53.314;-6.300;2023-04-25T13:23:50;101499.28;;;14.62;45.82
64368;BME280;50692;53.314;-6.300;2023-04-25T13:26:36;101510.09;;;14.44;46.33
64368;BME280;50692;53.314;-6.300;2023-04-25T13:29:22;101512.56;;;14.31;47.14
64368;BME280;50692;53.314;-6.300;2023-04-25T13:32:09;101508.34;;;14.43;46.80
64368;BME280;50692;53.314;-6.300;2023-04-25T13:34:55;101498.03;;;14.84;46.74
64368;BME280;50692;53.314;-6.300;2023-04-25T13:37:41;101505.84;;;15.17;45.50
64368;BME280;50692;53.314;-6.300;2023-04-25T13:40:27;101499.78;;;15.29;45.80
64368;BME280;50692;53.314;-6.300;2023-04-25T13:43:13;101490.38;;;15.38;45.50
64368;BME280;50692;53.314;-6.300;2023-04-25T13:45:59;101489.47;;;15.09;45.95
64368;BME280;50692;53.314;-6.300;2023-04-25T13:48:44;101495.25;;;15.01;46.19
64368;BME280;50692;53.314;-6.300;2023-04-25T13:51:32;101478.69;;;14.66;47.25
64368;BME280;50692;53.314;-6.300;2023-04-25T13:54:17;101489.84;;;14.57;46.91
64368;BME280;50692;53.314;-6.300;2023-04-25T13:57:03;101480.50;;;14.50;46.76
64368;BME280;50692;53.314;-6.300;2023-04-25T13:59:50;101493.09;;;14.30;46.81
64368;BME280;50692;53.314;-6.300;2023-04-25T14:02:36;101480.13;;;14.24;46.45
64368;BME280;50692;53.314;-6.300;2023-04-25T14:05:22;101489.06;;;14.23;45.96
64368;BME280;50692;53.314;-6.300;2023-04-25T14:08:09;101481.75;;;14.11;45.97
64368;BME280;50692;53.314;-6.300;2023-04-25T14:10:55;101475.44;;;13.98;46.23
64368;BME280;50692;53.314;-6.300;2023-04-25T14:13:41;101481.91;;;13.92;46.09
64368;BME280;50692;53.314;-6.300;2023-04-25T14:16:27;101486.38;;;13.76;46.28
64368;BME280;50692;53.314;-6.300;2023-04-25T14:19:13;101477.63;;;13.74;46.89
64368;BME280;50692;53.314;-6.300;2023-04-25T14:21:58;101467.09;;;13.88;46.49
64368;BME280;50692;53.314;-6.300;2023-04-25T14:24:44;101462.91;;;14.15;45.31
64368;BME280;50692;53.314;-6.300;2023-04-25T14:27:30;101463.84;;;14.62;44.00
64368;BME280;50692;53.314;-6.300;2023-04-25T14:30:17;101466.69;;;15.33;41.90
64368;BME280;50692;53.314;-6.300;2023-04-25T14:33:03;101455.91;;;16.06;40.70